createdAt,value
2023-01-30T00:00:04.314Z,87.02
2023-01-30T00:00:15.343Z,87.02
2023-01-30T00:00:27.272Z,87.02
2023-01-30T00:00:38.105Z,87.02
2023-01-30T00:00:49.910Z,87.02
2023-01-30T00:01:03.644Z,87.02
2023-01-30T00:01:16.094Z,87.02
2023-01-30T00:01:27.872Z,87.02
2023-01-30T00:01:38.693Z,87.02
2023-01-30T00:01:50.729Z,87.02
2023-01-30T00:02:01.549Z,87.02
2023-01-30T00:02:13.401Z,87.02
2023-01-30T00:02:25.844Z,87.12
2023-01-30T00:02:38.042Z,87.02
2023-01-30T00:02:48.831Z,87.02
2023-01-30T00:03:01.309Z,87.02
2023-01-30T00:03:13.066Z,87.02
2023-01-30T00:03:25.531Z,87.02
2023-01-30T00:03:37.249Z,87.02
2023-01-30T00:03:48.043Z,87.02
2023-01-30T00:03:58.813Z,87.12
2023-01-30T00:04:09.603Z,87.12
2023-01-30T00:04:23.309Z,87.12
2023-01-30T00:04:35.797Z,87.12
2023-01-30T00:04:48.276Z,87.12
2023-01-30T00:04:59.080Z,87.12
2023-01-30T00:05:09.892Z,87.12
2023-01-30T00:05:22.155Z,87.16
2023-01-30T00:05:32.927Z,87.02
2023-01-30T00:05:44.693Z,87.02
2023-01-30T00:05:56.912Z,87.02
2023-01-30T00:06:07.713Z,87.02
2023-01-30T00:06:21.006Z,87.02
2023-01-30T00:06:31.808Z,87.02
2023-01-30T00:06:43.577Z,87.12
2023-01-30T00:06:56.023Z,87.12
2023-01-30T00:07:08.298Z,87.12
2023-01-30T00:07:19.074Z,87.12
2023-01-30T00:07:29.869Z,87.12
2023-01-30T00:07:41.819Z,87.23
2023-01-30T00:07:52.545Z,87.23
2023-01-30T00:08:04.788Z,87.23
2023-01-30T00:08:17.296Z,87.23
2023-01-30T00:08:29.750Z,87.23
2023-01-30T00:08:40.590Z,87.23
2023-01-30T00:08:51.349Z,87.23
2023-01-30T00:09:02.113Z,87.23
2023-01-30T00:09:13.846Z,87.23
2023-01-30T00:09:24.608Z,87.33
2023-01-30T00:09:35.343Z,87.33
2023-01-30T00:09:47.079Z,87.33
2023-01-30T00:09:57.826Z,87.43
2023-01-30T00:10:08.670Z,87.43
2023-01-30T00:10:21.074Z,87.43
2023-01-30T00:10:33.558Z,87.43
2023-01-30T00:10:46.036Z,87.43
2023-01-30T00:10:58.280Z,87.43
2023-01-30T00:11:11.414Z,87.43
2023-01-30T00:11:23.647Z,87.43
2023-01-30T00:11:35.856Z,87.54
2023-01-30T00:11:49.089Z,87.54
2023-01-30T00:12:02.794Z,87.65
2023-01-30T00:12:16.204Z,87.75
2023-01-30T00:12:28.696Z,87.75
2023-01-30T00:12:40.418Z,87.75
2023-01-30T00:12:51.174Z,87.75
2023-01-30T00:13:03.644Z,87.75
2023-01-30T00:13:15.399Z,87.75
2023-01-30T00:13:27.142Z,87.75
2023-01-30T00:13:37.919Z,87.65
2023-01-30T00:13:50.670Z,87.65
2023-01-30T00:14:01.443Z,87.65
2023-01-30T00:14:12.248Z,87.65
2023-01-30T00:14:23.005Z,87.65
2023-01-30T00:14:33.808Z,87.65
2023-01-30T00:14:45.557Z,87.65
2023-01-30T00:14:58.037Z,87.65
2023-01-30T00:15:08.851Z,87.65
2023-01-30T00:15:20.554Z,87.75
2023-01-30T00:15:31.318Z,87.75
2023-01-30T00:15:42.136Z,87.85
2023-01-30T00:15:52.924Z,87.85
2023-01-30T00:16:04.743Z,87.96
2023-01-30T00:16:17.206Z,87.96
2023-01-30T00:16:28.061Z,87.96
2023-01-30T00:16:38.882Z,87.96
2023-01-30T00:16:49.681Z,87.96
2023-01-30T00:17:03.449Z,87.96
2023-01-30T00:17:14.217Z,87.96
2023-01-30T00:17:27.700Z,87.96
2023-01-30T00:17:40.867Z,87.96
2023-01-30T00:17:51.649Z,87.96
2023-01-30T00:18:04.640Z,87.96
2023-01-30T00:18:15.392Z,87.96
2023-01-30T00:18:27.926Z,87.96
2023-01-30T00:18:38.728Z,87.96
2023-01-30T00:18:51.213Z,87.96
2023-01-30T00:19:03.237Z,87.96
2023-01-30T00:19:14.935Z,87.96
2023-01-30T00:19:27.147Z,87.96
2023-01-30T00:19:37.946Z,87.96
2023-01-30T00:19:48.665Z,87.96
2023-01-30T00:19:59.432Z,88.06
2023-01-30T00:20:10.178Z,88.06
2023-01-30T00:20:21.319Z,88.17
2023-01-30T00:20:32.171Z,88.17
2023-01-30T00:20:44.899Z,88.27
2023-01-30T00:20:57.183Z,88.27
2023-01-30T00:21:10.209Z,88.27
2023-01-30T00:21:22.875Z,88.37
2023-01-30T00:21:33.671Z,88.37
2023-01-30T00:21:46.106Z,88.37
2023-01-30T00:21:58.330Z,88.37
2023-01-30T00:22:09.145Z,88.48
2023-01-30T00:22:19.922Z,88.48
2023-01-30T00:22:32.435Z,88.48
2023-01-30T00:22:52.387Z,88.58
2023-01-30T00:23:01.079Z,88.58
2023-01-30T00:23:12.111Z,88.58
2023-01-30T00:23:24.568Z,88.58
2023-01-30T00:23:36.344Z,88.58
2023-01-30T00:23:49.544Z,88.68
2023-01-30T00:24:00.322Z,88.68
2023-01-30T00:24:11.344Z,88.68
2023-01-30T00:24:23.992Z,88.68
2023-01-30T00:24:37.261Z,88.68
2023-01-30T00:24:49.857Z,88.58
2023-01-30T00:25:02.570Z,88.58
2023-01-30T00:25:16.031Z,88.58
2023-01-30T00:25:27.923Z,88.58
2023-01-30T00:25:40.544Z,88.58
2023-01-30T00:25:52.425Z,88.58
2023-01-30T00:26:04.192Z,88.58
2023-01-30T00:26:15.072Z,88.58
2023-01-30T00:26:25.851Z,88.58
2023-01-30T00:26:38.110Z,88.58
2023-01-30T00:26:50.598Z,88.58
2023-01-30T00:27:03.064Z,88.58
2023-01-30T00:27:14.798Z,88.58
2023-01-30T00:27:27.764Z,88.48
2023-01-30T00:27:41.009Z,88.48
2023-01-30T00:27:52.757Z,88.48
2023-01-30T00:28:05.491Z,88.48
2023-01-30T00:28:17.971Z,88.48
2023-01-30T00:28:29.689Z,88.48
2023-01-30T00:28:41.955Z,88.48
2023-01-30T00:28:52.701Z,88.48
2023-01-30T00:29:03.529Z,88.48
2023-01-30T00:29:14.317Z,88.48
2023-01-30T00:29:25.212Z,88.48
2023-01-30T00:29:37.722Z,88.48
2023-01-30T00:29:57.689Z,88.48
2023-01-30T00:30:04.105Z,88.48
2023-01-30T00:30:14.909Z,88.48
2023-01-30T00:30:27.403Z,88.48
2023-01-30T00:30:39.178Z,88.48
2023-01-30T00:30:50.988Z,88.48
2023-01-30T00:31:03.474Z,88.48
2023-01-30T00:31:16.000Z,88.48
2023-01-30T00:31:27.807Z,88.48
2023-01-30T00:31:38.627Z,88.48
2023-01-30T00:31:50.421Z,88.48
2023-01-30T00:32:03.651Z,88.58
2023-01-30T00:32:16.630Z,88.58
2023-01-30T00:32:28.409Z,88.58
2023-01-30T00:32:41.189Z,88.58
2023-01-30T00:32:52.013Z,88.58
2023-01-30T00:33:05.229Z,88.58
2023-01-30T00:33:17.020Z,88.68
2023-01-30T00:33:27.800Z,88.68
2023-01-30T00:33:40.247Z,88.68
2023-01-30T00:33:52.512Z,88.79
2023-01-30T00:34:03.447Z,88.79
2023-01-30T00:34:14.246Z,88.79
2023-01-30T00:34:26.680Z,88.79
2023-01-30T00:34:37.483Z,88.79
2023-01-30T00:34:49.971Z,88.79
2023-01-30T00:35:01.720Z,88.89
2023-01-30T00:35:13.551Z,89.00
2023-01-30T00:35:26.440Z,89.20
2023-01-30T00:35:38.204Z,89.41
2023-01-30T00:35:49.933Z,89.52
2023-01-30T00:36:02.182Z,89.62
2023-01-30T00:36:13.005Z,89.62
2023-01-30T00:36:24.722Z,89.73
2023-01-30T00:36:37.189Z,89.62
2023-01-30T00:36:58.844Z,89.62
2023-01-30T00:37:08.608Z,89.62
2023-01-30T00:37:20.411Z,89.52
2023-01-30T00:37:32.882Z,89.52
2023-01-30T00:37:44.634Z,89.52
2023-01-30T00:37:56.411Z,89.41
2023-01-30T00:38:09.629Z,89.41
2023-01-30T00:38:20.446Z,89.41
2023-01-30T00:38:32.881Z,89.41
2023-01-30T00:38:44.723Z,89.41
2023-01-30T00:38:56.450Z,89.41
2023-01-30T00:39:08.191Z,89.41
2023-01-30T00:39:18.955Z,89.41
2023-01-30T00:39:29.761Z,89.41
2023-01-30T00:39:41.505Z,89.31
2023-01-30T00:39:52.283Z,89.31
2023-01-30T00:40:05.028Z,89.31
2023-01-30T00:40:17.235Z,89.41
2023-01-30T00:40:28.205Z,89.41
2023-01-30T00:40:38.996Z,89.41
2023-01-30T00:40:49.775Z,89.41
2023-01-30T00:41:00.539Z,89.41
2023-01-30T00:41:12.995Z,89.41
2023-01-30T00:41:23.765Z,89.41
2023-01-30T00:41:36.480Z,89.41
2023-01-30T00:41:47.254Z,89.52
2023-01-30T00:41:58.042Z,89.52
2023-01-30T00:42:10.819Z,89.52
2023-01-30T00:42:24.554Z,89.52
2023-01-30T00:42:36.801Z,89.52
2023-01-30T00:42:47.567Z,89.52
2023-01-30T00:42:58.360Z,89.52
2023-01-30T00:43:23.762Z,89.52
2023-01-30T00:43:34.507Z,89.52
2023-01-30T00:43:46.224Z,89.41
2023-01-30T00:43:59.436Z,89.37
2023-01-30T00:44:11.194Z,89.41
2023-01-30T00:44:23.455Z,89.37
2023-01-30T00:44:35.655Z,89.37
2023-01-30T00:44:48.416Z,89.37
2023-01-30T00:45:00.128Z,89.37
2023-01-30T00:45:11.894Z,89.37
2023-01-30T00:45:24.379Z,89.37
2023-01-30T00:45:36.917Z,89.37
2023-01-30T00:45:50.730Z,89.37
2023-01-30T00:46:01.549Z,89.37
2023-01-30T00:46:13.318Z,89.37
2023-01-30T00:46:24.103Z,89.37
2023-01-30T00:46:34.853Z,89.37
2023-01-30T00:46:49.084Z,89.37
2023-01-30T00:47:01.323Z,89.48
2023-01-30T00:47:13.817Z,89.48
2023-01-30T00:47:24.606Z,89.48
2023-01-30T00:47:37.045Z,89.58
2023-01-30T00:47:49.584Z,89.58
2023-01-30T00:48:01.343Z,89.58
2023-01-30T00:48:12.098Z,89.58
2023-01-30T00:48:26.313Z,89.69
2023-01-30T00:48:37.104Z,89.69
2023-01-30T00:48:47.854Z,89.79
2023-01-30T00:48:58.604Z,89.79
2023-01-30T00:49:11.073Z,89.89
2023-01-30T00:49:21.843Z,89.89
2023-01-30T00:49:32.798Z,89.89
2023-01-30T00:49:46.228Z,89.89
2023-01-30T00:49:56.964Z,90.00
2023-01-30T00:50:08.704Z,90.00
2023-01-30T00:50:21.457Z,90.00
2023-01-30T00:50:33.226Z,90.00
2023-01-30T00:50:46.465Z,90.10
2023-01-30T00:50:58.940Z,90.10
2023-01-30T00:51:09.704Z,90.10
2023-01-30T00:51:20.510Z,90.10
2023-01-30T00:51:31.235Z,90.10
2023-01-30T00:51:41.998Z,90.10
2023-01-30T00:51:52.740Z,90.10
2023-01-30T00:52:04.512Z,90.00
2023-01-30T00:52:15.310Z,90.00
2023-01-30T00:52:28.024Z,90.00
2023-01-30T00:52:39.797Z,89.89
2023-01-30T00:52:52.542Z,89.89
2023-01-30T00:53:04.290Z,89.89
2023-01-30T00:53:16.529Z,89.89
2023-01-30T00:53:27.306Z,89.89
2023-01-30T00:53:39.033Z,89.85
2023-01-30T00:53:50.727Z,89.85
2023-01-30T00:54:03.159Z,89.85
2023-01-30T00:54:13.930Z,89.85
2023-01-30T00:54:24.801Z,89.85
2023-01-30T00:54:36.615Z,89.85
2023-01-30T00:54:47.415Z,89.85
2023-01-30T00:54:58.146Z,89.85
2023-01-30T00:55:10.427Z,89.85
2023-01-30T00:55:22.195Z,89.85
2023-01-30T00:55:32.919Z,89.85
2023-01-30T00:55:46.645Z,89.75
2023-01-30T00:55:59.137Z,89.75
2023-01-30T00:56:10.894Z,89.75
2023-01-30T00:56:23.387Z,89.64
2023-01-30T00:56:35.197Z,89.64
2023-01-30T00:56:47.635Z,89.64
2023-01-30T00:56:59.400Z,89.54
2023-01-30T00:57:10.927Z,89.54
2023-01-30T00:57:22.636Z,89.43
2023-01-30T00:57:34.893Z,89.43
2023-01-30T00:57:46.628Z,89.43
2023-01-30T00:57:57.440Z,89.43
2023-01-30T00:58:09.876Z,89.33
2023-01-30T00:58:21.633Z,89.33
2023-01-30T00:58:33.881Z,89.33
2023-01-30T00:58:47.107Z,89.33
2023-01-30T00:58:57.887Z,89.33
2023-01-30T00:59:11.103Z,89.33
2023-01-30T00:59:23.109Z,89.33
2023-01-30T00:59:33.902Z,89.33
2023-01-30T00:59:45.666Z,89.33
2023-01-30T00:59:56.491Z,89.33
2023-01-30T01:00:07.286Z,89.33
2023-01-30T01:00:19.777Z,89.33
2023-01-30T01:00:30.547Z,89.33
2023-01-30T01:00:41.346Z,89.23
2023-01-30T01:00:52.161Z,89.23
2023-01-30T01:01:02.969Z,89.23
2023-01-30T01:01:15.530Z,89.23
2023-01-30T01:01:27.254Z,89.23
2023-01-30T01:01:40.020Z,89.23
2023-01-30T01:01:50.911Z,89.23
2023-01-30T01:02:02.743Z,89.23
2023-01-30T01:02:15.325Z,89.23
2023-01-30T01:02:26.113Z,89.23
2023-01-30T01:02:38.396Z,89.23
2023-01-30T01:02:50.190Z,89.23
2023-01-30T01:03:01.983Z,89.23
2023-01-30T01:03:12.777Z,89.23
2023-01-30T01:03:23.600Z,89.08
2023-01-30T01:03:36.186Z,89.08
2023-01-30T01:03:47.935Z,89.08
2023-01-30T01:03:58.728Z,89.08
2023-01-30T01:04:09.512Z,88.98
2023-01-30T01:04:21.306Z,88.98
2023-01-30T01:04:33.062Z,88.98
2023-01-30T01:04:45.570Z,88.98
2023-01-30T01:04:57.328Z,88.87
2023-01-30T01:05:09.778Z,88.87
2023-01-30T01:05:20.786Z,88.87
2023-01-30T01:05:33.380Z,88.87
2023-01-30T01:05:45.126Z,88.87
2023-01-30T01:05:55.924Z,88.77
2023-01-30T01:06:08.567Z,88.77
2023-01-30T01:06:20.311Z,88.77
2023-01-30T01:06:31.092Z,88.77
2023-01-30T01:06:44.123Z,88.77
2023-01-30T01:06:56.606Z,88.77
2023-01-30T01:07:08.886Z,88.77
2023-01-30T01:07:21.323Z,88.77
2023-01-30T01:07:32.146Z,88.67
2023-01-30T01:07:45.107Z,88.67
2023-01-30T01:07:57.357Z,88.67
2023-01-30T01:08:09.087Z,88.67
2023-01-30T01:08:22.144Z,88.67
2023-01-30T01:08:33.840Z,88.67
2023-01-30T01:08:45.577Z,88.67
2023-01-30T01:08:58.070Z,88.56
2023-01-30T01:09:10.559Z,88.56
2023-01-30T01:09:22.762Z,88.56
2023-01-30T01:09:33.530Z,88.56
2023-01-30T01:09:46.034Z,88.56
2023-01-30T01:09:57.790Z,88.56
2023-01-30T01:10:08.603Z,88.56
2023-01-30T01:10:21.083Z,88.46
2023-01-30T01:10:31.816Z,88.46
2023-01-30T01:10:42.609Z,88.46
2023-01-30T01:10:53.393Z,88.46
2023-01-30T01:11:05.148Z,88.46
2023-01-30T01:11:16.888Z,88.46
2023-01-30T01:11:27.753Z,88.46
2023-01-30T01:11:39.964Z,88.46
2023-01-30T01:11:51.658Z,88.35
2023-01-30T01:12:02.451Z,88.35
2023-01-30T01:12:14.936Z,88.35
2023-01-30T01:12:27.920Z,88.25
2023-01-30T01:12:38.791Z,88.21
2023-01-30T01:12:49.651Z,88.21
2023-01-30T01:13:01.365Z,88.21
2023-01-30T01:13:12.114Z,88.10
2023-01-30T01:13:24.592Z,88.10
2023-01-30T01:13:36.342Z,88.10
2023-01-30T01:13:47.122Z,88.10
2023-01-30T01:13:59.624Z,88.10
2023-01-30T01:14:10.480Z,88.10
2023-01-30T01:14:21.588Z,88.10
2023-01-30T01:14:35.318Z,88.10
2023-01-30T01:14:47.263Z,88.10
2023-01-30T01:14:59.212Z,88.10
2023-01-30T01:15:11.160Z,88.10
2023-01-30T01:15:23.585Z,88.10
2023-01-30T01:15:35.396Z,88.10
2023-01-30T01:15:46.172Z,88.10
2023-01-30T01:15:57.051Z,88.10
2023-01-30T01:16:10.844Z,88.10
2023-01-30T01:16:23.111Z,88.10
2023-01-30T01:16:33.903Z,88.21
2023-01-30T01:16:45.656Z,88.21
2023-01-30T01:16:57.473Z,88.21
2023-01-30T01:17:09.940Z,88.21
2023-01-30T01:17:22.423Z,88.21
2023-01-30T01:17:34.864Z,88.21
2023-01-30T01:17:45.711Z,88.21
2023-01-30T01:17:57.448Z,88.21
2023-01-30T01:18:09.947Z,88.31
2023-01-30T01:18:20.711Z,88.31
2023-01-30T01:18:31.515Z,88.31
2023-01-30T01:18:42.255Z,88.31
2023-01-30T01:18:54.490Z,88.31
2023-01-30T01:19:06.993Z,88.21
2023-01-30T01:19:18.715Z,88.21
2023-01-30T01:19:31.223Z,88.21
2023-01-30T01:19:42.035Z,88.21
2023-01-30T01:19:54.521Z,88.21
2023-01-30T01:20:05.290Z,88.21
2023-01-30T01:20:17.784Z,88.10
2023-01-30T01:20:28.558Z,88.10
2023-01-30T01:20:39.368Z,88.10
2023-01-30T01:20:51.593Z,88.10
2023-01-30T01:21:02.367Z,88.10
2023-01-30T01:21:14.099Z,88.10
2023-01-30T01:21:26.555Z,88.10
2023-01-30T01:21:38.315Z,88.00
2023-01-30T01:21:49.117Z,88.10
2023-01-30T01:22:00.851Z,88.00
2023-01-30T01:22:11.634Z,88.00
2023-01-30T01:22:23.405Z,88.10
2023-01-30T01:22:34.182Z,88.10
2023-01-30T01:22:44.963Z,88.10
2023-01-30T01:22:55.793Z,88.10
2023-01-30T01:23:07.537Z,88.00
2023-01-30T01:23:20.030Z,88.00
2023-01-30T01:23:31.762Z,88.00
2023-01-30T01:23:44.207Z,88.00
2023-01-30T01:23:56.674Z,88.00
2023-01-30T01:24:07.495Z,88.00
2023-01-30T01:24:18.321Z,87.90
2023-01-30T01:24:30.548Z,87.90
2023-01-30T01:24:41.403Z,87.90
2023-01-30T01:24:52.187Z,87.90
2023-01-30T01:25:02.984Z,87.90
2023-01-30T01:25:13.764Z,87.90
2023-01-30T01:25:24.573Z,87.90
2023-01-30T01:25:37.911Z,88.00
2023-01-30T01:25:49.657Z,88.00
2023-01-30T01:26:02.398Z,88.00
2023-01-30T01:26:13.215Z,88.00
2023-01-30T01:26:24.020Z,88.00
2023-01-30T01:26:36.040Z,88.00
2023-01-30T01:26:46.909Z,88.00
2023-01-30T01:26:59.418Z,88.00
2023-01-30T01:27:11.887Z,88.00
2023-01-30T01:27:22.705Z,88.00
2023-01-30T01:27:34.598Z,88.10
2023-01-30T01:27:47.106Z,88.10
2023-01-30T01:27:59.919Z,88.10
2023-01-30T01:28:11.618Z,88.10
2023-01-30T01:28:22.415Z,88.21
2023-01-30T01:28:35.633Z,88.21
2023-01-30T01:28:46.404Z,88.21
2023-01-30T01:28:57.165Z,88.21
2023-01-30T01:29:07.968Z,88.21
2023-01-30T01:29:20.213Z,88.21
2023-01-30T01:29:32.449Z,88.21
2023-01-30T01:29:43.991Z,88.21
2023-01-30T01:29:56.980Z,88.21
2023-01-30T01:30:09.427Z,88.31
2023-01-30T01:30:21.171Z,88.31
2023-01-30T01:30:31.926Z,88.31
2023-01-30T01:30:42.696Z,88.31
2023-01-30T01:30:55.169Z,88.42
2023-01-30T01:31:06.937Z,88.42
2023-01-30T01:31:19.462Z,88.42
2023-01-30T01:31:32.097Z,88.42
2023-01-30T01:31:42.965Z,88.42
2023-01-30T01:31:55.270Z,88.42
2023-01-30T01:32:07.046Z,88.42
2023-01-30T01:32:17.811Z,88.42
2023-01-30T01:32:28.644Z,88.42
2023-01-30T01:32:40.408Z,88.42
2023-01-30T01:32:51.144Z,88.52
2023-01-30T01:33:02.886Z,88.52
2023-01-30T01:33:15.377Z,88.52
2023-01-30T01:33:27.029Z,88.52
2023-01-30T01:33:37.824Z,88.52
2023-01-30T01:33:48.619Z,88.42
2023-01-30T01:33:59.404Z,88.42
2023-01-30T01:34:11.167Z,88.42
2023-01-30T01:34:22.909Z,88.42
2023-01-30T01:34:35.408Z,88.42
2023-01-30T01:34:47.905Z,88.42
2023-01-30T01:34:59.647Z,88.42
2023-01-30T01:35:12.125Z,88.52
2023-01-30T01:35:24.891Z,88.52
2023-01-30T01:35:37.331Z,88.52
2023-01-30T01:35:49.851Z,88.52
2023-01-30T01:36:03.670Z,88.62
2023-01-30T01:36:35.664Z,88.62
2023-01-30T01:36:52.761Z,88.62
2023-01-30T01:36:54.010Z,88.62
2023-01-30T01:37:05.299Z,88.62
2023-01-30T01:37:16.103Z,88.52
2023-01-30T01:37:28.334Z,88.62
2023-01-30T01:37:40.081Z,88.52
2023-01-30T01:37:50.907Z,88.52
2023-01-30T01:38:04.126Z,88.52
2023-01-30T01:38:17.619Z,88.52
2023-01-30T01:38:31.610Z,88.52
2023-01-30T01:38:43.362Z,88.52
2023-01-30T01:38:55.841Z,88.52
2023-01-30T01:39:08.313Z,88.52
2023-01-30T01:39:21.053Z,88.52
2023-01-30T01:39:32.769Z,88.42
2023-01-30T01:39:43.555Z,88.42
2023-01-30T01:39:55.239Z,88.42
2023-01-30T01:40:06.987Z,88.42
2023-01-30T01:40:20.216Z,88.42
2023-01-30T01:40:31.138Z,88.42
2023-01-30T01:40:42.875Z,88.42
2023-01-30T01:40:55.349Z,88.52
2023-01-30T01:41:07.828Z,88.52
2023-01-30T01:41:19.537Z,88.52
2023-01-30T01:41:31.788Z,88.52
2023-01-30T01:41:42.550Z,88.52
2023-01-30T01:41:54.279Z,88.52
2023-01-30T01:42:06.856Z,88.52
2023-01-30T01:42:18.879Z,88.52
2023-01-30T01:42:29.603Z,88.52
2023-01-30T01:42:40.384Z,88.52
2023-01-30T01:42:52.819Z,88.52
2023-01-30T01:43:03.659Z,88.62
2023-01-30T01:43:15.484Z,88.62
2023-01-30T01:43:27.388Z,88.62
2023-01-30T01:43:41.211Z,88.73
2023-01-30T01:43:52.940Z,88.73
2023-01-30T01:44:05.490Z,88.84
2023-01-30T01:44:16.244Z,89.04
2023-01-30T01:44:28.763Z,89.15
2023-01-30T01:44:41.035Z,89.36
2023-01-30T01:44:53.328Z,89.56
2023-01-30T01:45:04.267Z,89.67
2023-01-30T01:45:16.239Z,89.77
2023-01-30T01:45:28.089Z,89.87
2023-01-30T01:45:38.941Z,90.08
2023-01-30T01:45:51.449Z,90.29
2023-01-30T01:46:04.532Z,90.50
2023-01-30T01:46:16.349Z,90.70
2023-01-30T01:46:29.565Z,90.91
2023-01-30T01:46:42.046Z,91.12
2023-01-30T01:46:55.271Z,91.22
2023-01-30T01:47:07.100Z,91.33
2023-01-30T01:47:19.589Z,91.53
2023-01-30T01:47:32.051Z,91.64
2023-01-30T01:47:45.274Z,91.85
2023-01-30T01:47:56.094Z,91.95
2023-01-30T01:48:07.829Z,92.16
2023-01-30T01:48:18.620Z,92.26
2023-01-30T01:48:31.086Z,92.36
2023-01-30T01:48:41.801Z,92.36
2023-01-30T01:48:54.332Z,92.47
2023-01-30T01:49:06.633Z,92.57
2023-01-30T01:49:20.340Z,92.57
2023-01-30T01:49:32.562Z,92.68
2023-01-30T01:49:44.794Z,92.82
2023-01-30T01:49:57.233Z,92.82
2023-01-30T01:50:07.984Z,92.93
2023-01-30T01:50:18.734Z,93.03
2023-01-30T01:50:30.479Z,93.14
2023-01-30T01:50:42.481Z,93.24
2023-01-30T01:50:54.974Z,93.35
2023-01-30T01:51:05.807Z,93.35
2023-01-30T01:51:17.531Z,93.35
2023-01-30T01:51:28.321Z,93.35
2023-01-30T01:51:40.074Z,93.35
2023-01-30T01:51:51.834Z,93.45
2023-01-30T01:52:02.572Z,93.66
2023-01-30T01:52:13.371Z,93.76
2023-01-30T01:52:25.115Z,93.87
2023-01-30T01:52:36.885Z,93.97
2023-01-30T01:52:52.099Z,94.07
2023-01-30T01:53:03.913Z,94.28
2023-01-30T01:53:15.715Z,94.38
2023-01-30T01:53:26.657Z,94.38
2023-01-30T01:53:38.389Z,94.49
2023-01-30T01:53:50.833Z,94.70
2023-01-30T01:54:01.612Z,94.80
2023-01-30T01:54:14.733Z,94.90
2023-01-30T01:54:26.411Z,94.90
2023-01-30T01:54:38.150Z,95.01
2023-01-30T01:54:50.599Z,95.11
2023-01-30T01:55:03.040Z,95.21
2023-01-30T01:55:14.774Z,95.36
2023-01-30T01:55:26.552Z,95.47
2023-01-30T01:55:38.832Z,95.47
2023-01-30T01:55:49.623Z,95.57
2023-01-30T01:56:01.412Z,95.57
2023-01-30T01:56:12.207Z,95.67
2023-01-30T01:56:22.981Z,95.67
2023-01-30T01:56:35.316Z,95.78
2023-01-30T01:56:47.791Z,95.78
2023-01-30T01:56:58.600Z,95.89
2023-01-30T01:57:11.093Z,95.89
2023-01-30T01:57:22.894Z,95.99
2023-01-30T01:57:34.623Z,95.99
2023-01-30T01:57:46.441Z,96.09
2023-01-30T01:57:57.252Z,96.20
2023-01-30T01:58:08.032Z,96.20
2023-01-30T01:58:19.831Z,96.30
2023-01-30T01:58:31.581Z,96.41
2023-01-30T01:58:42.534Z,96.41
2023-01-30T01:58:54.282Z,96.41
2023-01-30T01:59:07.253Z,96.51
2023-01-30T01:59:18.015Z,96.51
2023-01-30T01:59:29.806Z,96.51
2023-01-30T01:59:41.607Z,96.61
2023-01-30T01:59:53.355Z,96.61
2023-01-30T02:00:05.124Z,96.61
2023-01-30T02:00:16.938Z,96.61
2023-01-30T02:00:29.434Z,96.72
2023-01-30T02:00:41.633Z,96.72
2023-01-30T02:00:53.455Z,96.72
2023-01-30T02:01:04.272Z,96.82
2023-01-30T02:01:16.104Z,96.82
2023-01-30T02:01:26.990Z,96.82
2023-01-30T02:01:39.447Z,96.92
2023-01-30T02:01:50.219Z,96.92
2023-01-30T02:02:01.081Z,96.92
2023-01-30T02:02:11.981Z,97.03
2023-01-30T02:02:25.172Z,97.03
2023-01-30T02:02:36.919Z,97.03
2023-01-30T02:02:47.688Z,97.03
2023-01-30T02:02:59.465Z,97.13
2023-01-30T02:03:11.204Z,97.13
2023-01-30T02:03:23.206Z,97.13
2023-01-30T02:03:34.925Z,97.24
2023-01-30T02:03:46.689Z,97.24
2023-01-30T02:03:57.453Z,97.24
2023-01-30T02:04:08.264Z,97.24
2023-01-30T02:04:19.002Z,97.24
2023-01-30T02:04:31.475Z,97.24
2023-01-30T02:04:42.284Z,97.34
2023-01-30T02:04:53.083Z,97.34
2023-01-30T02:05:03.890Z,97.34
2023-01-30T02:05:16.537Z,97.44
2023-01-30T02:05:29.147Z,97.44
2023-01-30T02:05:41.629Z,97.44
2023-01-30T02:05:53.397Z,97.44
2023-01-30T02:06:05.625Z,97.55
2023-01-30T02:06:17.594Z,97.55
2023-01-30T02:06:31.315Z,97.59
2023-01-30T02:06:43.038Z,97.55
2023-01-30T02:06:55.853Z,97.59
2023-01-30T02:07:08.373Z,97.55
2023-01-30T02:07:19.157Z,97.59
2023-01-30T02:07:31.398Z,97.59
2023-01-30T02:07:42.195Z,97.59
2023-01-30T02:07:55.403Z,97.70
2023-01-30T02:08:06.184Z,97.70
2023-01-30T02:08:18.026Z,97.70
2023-01-30T02:08:30.461Z,97.80
2023-01-30T02:08:42.447Z,97.80
2023-01-30T02:08:53.194Z,97.80
2023-01-30T02:09:04.998Z,97.80
2023-01-30T02:09:16.757Z,97.80
2023-01-30T02:09:28.493Z,97.80
2023-01-30T02:09:40.948Z,97.80
2023-01-30T02:09:51.754Z,97.80
2023-01-30T02:10:03.483Z,97.80
2023-01-30T02:10:16.445Z,97.91
2023-01-30T02:10:27.226Z,97.91
2023-01-30T02:10:39.484Z,97.91
2023-01-30T02:10:51.478Z,97.91
2023-01-30T02:11:03.958Z,98.01
2023-01-30T02:11:17.695Z,98.01
2023-01-30T02:11:29.438Z,98.01
2023-01-30T02:11:42.177Z,98.11
2023-01-30T02:11:52.956Z,98.11
2023-01-30T02:12:06.415Z,98.11
2023-01-30T02:12:17.237Z,98.11
2023-01-30T02:12:28.955Z,98.11
2023-01-30T02:12:40.679Z,98.11
2023-01-30T02:12:51.453Z,98.11
2023-01-30T02:13:03.900Z,98.22
2023-01-30T02:13:16.406Z,98.22
2023-01-30T02:13:28.891Z,98.22
2023-01-30T02:13:40.626Z,98.22
2023-01-30T02:13:53.107Z,98.22
2023-01-30T02:14:04.112Z,98.22
2023-01-30T02:14:16.566Z,98.22
2023-01-30T02:14:28.265Z,98.22
2023-01-30T02:14:39.107Z,98.22
2023-01-30T02:14:49.851Z,98.32
2023-01-30T02:15:01.626Z,98.32
2023-01-30T02:15:14.104Z,98.22
2023-01-30T02:15:26.367Z,98.32
2023-01-30T02:15:38.366Z,98.32
2023-01-30T02:15:50.185Z,98.32
2023-01-30T02:16:02.446Z,98.22
2023-01-30T02:16:14.216Z,98.22
2023-01-30T02:16:24.998Z,98.22
2023-01-30T02:16:35.824Z,98.22
2023-01-30T02:16:47.561Z,98.22
2023-01-30T02:16:58.360Z,98.22
2023-01-30T02:17:11.126Z,98.22
2023-01-30T02:17:23.792Z,98.22
2023-01-30T02:17:35.560Z,98.22
2023-01-30T02:17:47.508Z,98.22
2023-01-30T02:17:59.276Z,98.22
2023-01-30T02:18:12.989Z,98.22
2023-01-30T02:18:24.756Z,98.22
2023-01-30T02:18:37.008Z,98.07
2023-01-30T02:18:50.731Z,98.07
2023-01-30T02:19:03.726Z,98.11
2023-01-30T02:19:14.511Z,98.07
2023-01-30T02:19:26.746Z,98.07
2023-01-30T02:19:39.292Z,98.07
2023-01-30T02:19:51.071Z,98.07
2023-01-30T02:20:02.839Z,98.07
2023-01-30T02:20:14.581Z,98.07
2023-01-30T02:20:27.031Z,97.96
2023-01-30T02:20:40.247Z,97.96
2023-01-30T02:20:52.730Z,97.96
2023-01-30T02:21:05.239Z,97.96
2023-01-30T02:21:16.037Z,97.96
2023-01-30T02:21:28.475Z,97.96
2023-01-30T02:21:40.946Z,98.07
2023-01-30T02:21:52.718Z,98.07
2023-01-30T02:22:03.476Z,98.07
2023-01-30T02:22:15.209Z,98.07
2023-01-30T02:22:27.427Z,98.07
2023-01-30T02:22:39.187Z,98.07
2023-01-30T02:22:50.987Z,98.07
2023-01-30T02:23:01.756Z,98.07
2023-01-30T02:23:12.555Z,98.07
2023-01-30T02:23:24.309Z,98.07
2023-01-30T02:23:35.088Z,98.07
2023-01-30T02:23:46.806Z,98.07
2023-01-30T02:23:58.561Z,98.07
2023-01-30T02:24:09.397Z,98.07
2023-01-30T02:24:20.165Z,98.07
2023-01-30T02:24:31.877Z,98.07
2023-01-30T02:24:44.087Z,98.07
2023-01-30T02:24:54.848Z,98.07
2023-01-30T02:25:05.620Z,98.07
2023-01-30T02:25:18.467Z,98.07
2023-01-30T02:25:31.100Z,98.07
2023-01-30T02:25:42.901Z,98.07
2023-01-30T02:25:56.509Z,97.96
2023-01-30T02:26:08.346Z,97.96
2023-01-30T02:26:19.145Z,97.86
2023-01-30T02:26:31.668Z,97.86
2023-01-30T02:26:44.689Z,97.86
2023-01-30T02:26:55.515Z,97.86
2023-01-30T02:27:07.768Z,97.86
2023-01-30T02:27:18.557Z,97.86
2023-01-30T02:27:29.362Z,97.86
2023-01-30T02:27:41.137Z,97.86
2023-01-30T02:27:51.909Z,97.86
2023-01-30T02:28:04.881Z,97.86
2023-01-30T02:28:17.337Z,97.86
2023-01-30T02:28:28.093Z,97.86
2023-01-30T02:28:40.597Z,97.86
2023-01-30T02:28:52.419Z,97.86
2023-01-30T02:29:03.232Z,97.96
2023-01-30T02:29:15.730Z,97.96
2023-01-30T02:29:27.764Z,97.86
2023-01-30T02:29:40.208Z,97.86
2023-01-30T02:29:50.987Z,97.86
2023-01-30T02:30:01.763Z,97.86
2023-01-30T02:30:14.228Z,97.86
2023-01-30T02:30:27.541Z,97.86
2023-01-30T02:30:38.666Z,97.86
2023-01-30T02:30:49.588Z,97.86
2023-01-30T02:31:01.933Z,97.86
2023-01-30T02:31:13.788Z,97.96
2023-01-30T02:31:26.113Z,97.96
2023-01-30T02:31:39.492Z,97.96
2023-01-30T02:31:50.354Z,97.96
2023-01-30T02:32:03.452Z,97.96
2023-01-30T02:32:15.170Z,97.96
2023-01-30T02:32:25.970Z,97.96
2023-01-30T02:32:37.719Z,97.96